Latest Weather Observations for Bankstown

IDN60801

Issued at 2:05 pm EDT Sunday 26 October 2014 (issued every 30 minutes, with the page automatically refreshed every 10 minutes)

About weather observations | Map of weather stations | Latest weather observations for NSW | Other Formats
Station Details ID: 066137 Name: BANKSTOWN AIRPORT AWS Lat: -33.92 Lon: 150.99 Height: 6.5 m
Data from the previous 72 hours. | See also: Recent months at Bankstown
Date/Time
EDT
Temp
°C
App
Temp
°C
Dew
Point
Rel
Hum
%
Delta-T
°C
Wind Press
QNH
hPa
Press
MSL
hPa
Rain
since 9 am
mm
Dir
 
Spd
km/h
Gust
km/h
Spd
kts
Gust
kts
26/02:00pm 30.1 26.8 16.1 42 8.7 ESE 28 35 15 19 1007.7 1007.7 0.0
26/01:30pm 32.7 31.6 10.7 26 12.8 S 7 9 4 5 1007.7 1007.7 0.0
26/01:00pm 31.6 30.9 11.9 30 11.6 SSW 7 11 4 6 1008.1 1008.1 0.0
26/12:30pm 30.8 31.2 13.6 35 10.3 ENE 4 11 2 6 1008.4 1008.4 0.0
26/12:00pm 29.7 29.6 15.0 40 9.0 W 9 15 5 8 1008.6 1008.6 0.0
26/11:30am 28.4 28.6 15.7 46 7.8 W 9 15 5 8 1008.8 1008.8 0.0
26/11:00am 27.4 28.1 17.0 53 6.5 WNW 9 13 5 7 1009.1 1009.1 0.0
26/10:30am 25.2 25.7 16.6 59 5.3 W 9 13 5 7 1009.6 1009.6 0.0
26/10:00am 24.2 25.0 17.4 65 4.2 W 9 15 5 8 1010.1 1010.1 0.0
26/09:30am 23.2 23.6 17.2 69 3.7 WNW 11 17 6 9 1010.2 1010.2 0.0
26/09:00am 22.1 22.6 17.5 75 2.8 W 11 17 6 9 1010.4 1010.4 0.0
26/08:40am 21.4 22.1 17.0 76 2.7 WNW 9 13 5 7 1010.6 1010.6 0.0
26/08:30am 21.1 21.8 17.1 78 2.4 WNW 9 13 5 7 1010.7 1010.7 0.0
26/08:05am 20.5 22.6 17.1 81 2.1 SW 2 7 1 4 1011.0 1011.0 0.0
26/08:00am 20.3 22.4 17.3 83 1.8 W 2 7 1 4 1011.0 1011.0 0.0
26/07:30am 18.9 21.3 16.9 88 1.2 CALM 0 0 0 0 1010.9 1010.9 0.0
26/07:00am 17.4 19.3 15.7 90 1.0 CALM 0 0 0 0 1010.9 1010.9 0.0
26/06:30am 16.3 17.7 14.3 88 1.1 CALM 0 0 0 0 1010.8 1010.8 0.0
26/06:00am 16.7 18.2 14.7 88 1.2 NW 0 2 0 1 1010.7 1010.7 0.0
26/05:30am 17.6 19.5 15.8 89 1.1 CALM 0 0 0 0 1010.9 1010.9 0.0
26/05:16am 17.6 19.5 15.8 89 1.1 CALM 0 4 0 2 1010.9 1010.9 0.0
26/05:00am 17.6 18.4 15.8 89 1.1 NW 6 7 3 4 1010.9 1010.9 0.0
26/04:44am 17.4 18.0 15.4 88 1.2 NW 6 6 3 3 1010.9 1010.9 0.0
26/04:30am 17.5 18.9 15.3 87 1.3 NW 2 7 1 4 1011.0 1011.0 0.0
26/04:13am 18.1 18.9 15.9 87 1.3 NW 6 7 3 4 1011.0 1011.0 0.0
26/04:00am 18.1 20.0 15.7 86 1.4 CALM 0 0 0 0 1011.3 1011.3 0.0
26/03:50am 18.4 20.4 16.0 86 1.4 CALM 0 0 0 0 1011.5 1011.5 0.0
26/03:30am 18.5 19.7 15.9 85 1.5 NW 4 6 2 3 1011.8 1011.8 0.0
26/03:00am 18.8 19.2 16.4 86 1.4 NW 9 11 5 6 1012.4 1012.4 0.0
26/02:30am 18.5 18.4 16.1 86 1.4 WNW 11 13 6 7 1012.6 1012.6 0.0
26/02:00am 18.8 19.5 16.2 85 1.6 WNW 7 9 4 5 1013.1 1013.1 0.0
26/01:30am 18.4 18.9 15.5 83 1.7 SW 7 13 4 7 1013.1 1013.1 0.0
26/01:00am 19.6 19.9 16.1 80 2.1 W 9 11 5 6 1013.8 1013.8 0.0
26/12:30am 20.0 19.2 16.2 79 2.3 N 15 20 8 11 1014.3 1014.3 0.0
26/12:00am 20.1 20.9 16.3 79 2.3 WSW 7 15 4 8 1016.1 1016.1 0.0
 
Date/Time
EDT
Temp
°C
App
Temp
°C
Dew
Point
Rel
Hum
%
Delta-T
°C
Wind Press
QNH
hPa
Press
MSL
hPa
Rain
since 9 am
mm
Dir
 
Spd
km/h
Gust
km/h
Spd
kts
Gust
kts
25/11:30pm 20.0 19.6 16.2 79 2.3 SW 13 20 7 11 1016.9 1016.9 0.0
25/11:08pm 19.9 18.8 16.3 80 2.2 S 17 24 9 13 1016.7 1016.7 0.0
25/11:00pm 19.9 18.8 16.3 80 2.2 S 17 24 9 13 1016.8 1016.8 0.0
25/10:30pm 20.1 20.6 16.5 80 2.2 S 9 13 5 7 1016.0 1016.0 0.0
25/10:21pm 20.3 20.0 16.5 79 2.3 SE 13 19 7 10 1015.7 1015.7 0.0
25/10:07pm 20.4 20.2 16.6 79 2.3 SE 13 17 7 9 1015.8 1015.8 0.0
25/10:00pm 20.4 20.5 16.6 79 2.3 SSE 11 15 6 8 1015.9 1015.9 0.0
25/09:30pm 20.4 20.5 16.4 78 2.4 SSE 11 17 6 9 1016.7 1016.7 0.0
25/09:00pm 20.6 19.5 16.4 77 2.5 SE 17 20 9 11 1016.5 1016.5 0.0
25/08:30pm 20.6 19.6 16.6 78 2.4 SE 17 22 9 12 1016.3 1016.3 0.0
25/08:00pm 20.6 18.6 16.4 77 2.5 SE 22 30 12 16 1015.6 1015.6 0.0
25/07:30pm 21.0 18.6 16.4 75 2.8 ESE 24 33 13 18 1015.1 1015.1 0.0
25/07:00pm 20.8 19.7 16.4 76 2.7 SSE 17 22 9 12 1015.6 1015.6 0.0
25/06:30pm 21.4 19.9 16.8 75 2.8 SSE 20 28 11 15 1014.2 1014.2 0.0
25/06:20pm 21.5 19.6 16.7 74 2.9 SE 22 28 12 15 1014.0 1014.0 0.0
25/06:00pm 22.0 18.9 16.5 71 3.3 SE 28 35 15 19 1013.7 1013.7 0.0
25/05:30pm 23.4 21.1 16.7 66 4.1 ESE 24 33 13 18 1013.4 1013.4 0.0
25/05:00pm 23.8 21.4 16.3 63 4.6 ESE 24 32 13 17 1013.4 1013.4 0.0
25/04:30pm 24.1 22.3 16.1 61 4.9 ESE 20 28 11 15 1013.2 1013.2 0.0
25/04:00pm 24.8 22.2 16.0 58 5.4 ESE 24 30 13 16 1012.9 1012.9 0.0
25/03:30pm 26.0 23.8 16.8 57 5.7 ESE 24 30 13 16 1013.2 1013.2 0.0
25/03:00pm 26.7 24.1 16.9 55 6.1 ESE 26 33 14 18 1013.1 1013.1 0.0
25/02:30pm 25.9 22.0 15.6 53 6.3 ESE 30 35 16 19 1013.3 1013.3 0.0
25/02:00pm 27.0 24.2 16.3 52 6.6 E 26 32 14 17 1013.7 1013.7 0.0
25/01:30pm 27.4 24.9 16.1 50 7.0 E 24 30 13 16 1014.0 1014.0 0.0
25/01:00pm 28.0 25.9 16.3 49 7.2 E 22 28 12 15 1014.1 1014.1 0.0
25/12:30pm 30.2 30.0 13.5 36 10.0 NNE 7 15 4 8 1014.0 1014.0 0.0
25/12:00pm 29.8 29.8 13.5 36 9.7 WNW 6 7 3 4 1014.6 1014.6 0.0
25/11:30am 28.7 28.1 13.4 39 9.1 ESE 9 11 5 6 1014.9 1014.9 0.0
25/11:00am 27.8 27.4 13.0 40 8.7 SSW 7 11 4 6 1015.1 1015.1 0.0
25/10:30am 27.2 28.3 13.5 42 8.1 CALM 0 11 0 6 1015.0 1015.0 0.0
25/10:00am 25.8 26.4 14.3 49 6.8 S 4 9 2 5 1015.1 1015.1 0.0
25/09:30am 23.9 25.7 17.4 67 4.0 WNW 4 9 2 5 1015.5 1015.5 0.0
25/09:00am 21.1 22.6 19.0 88 1.3 WNW 9 13 5 7 1015.5 1015.5 0.4
25/08:51am 20.0 21.1 18.8 93 0.8 WNW 11 15 6 8 1015.4 1015.4 0.4
25/08:37am 18.8 19.5 18.0 95 0.5 NW 11 13 6 7 1015.3 1015.3 0.4
25/08:30am 18.4 19.0 17.6 95 0.5 NW 11 13 6 7 1015.2 1015.2 0.4
25/08:00am 17.8 19.1 17.0 95 0.5 WNW 6 9 3 5 1015.3 1015.3 0.4
25/07:30am 17.6 18.7 16.6 94 0.6 WSW 6 7 3 4 1015.1 1015.1 0.4
25/07:00am 17.4 18.2 16.4 94 0.6 SW 7 9 4 5 1014.8 1014.8 0.4
25/06:30am 17.5 18.3 16.4 93 0.7 SW 7 11 4 6 1014.3 1014.3 0.4
25/06:00am 17.7 18.6 16.6 93 0.7 SW 7 11 4 6 1013.6 1013.6 0.4
25/05:39am 17.6 18.6 16.3 92 0.8 SW 6 9 3 5 1013.3 1013.3 0.4
25/05:35am 17.4 18.3 16.1 92 0.8 SW 6 7 3 4 1013.2 1013.2 0.4
25/05:30am 17.4 18.3 16.1 92 0.8 SW 6 7 3 4 1013.0 1013.0 0.4
25/05:00am 17.3 18.8 15.8 91 0.9 SW 2 9 1 5 1012.7 1012.7 0.4
25/04:48am 16.9 18.6 15.2 90 1.0 CALM 0 0 0 0 1012.6 1012.6 0.4
25/04:30am 17.9 20.0 16.2 90 1.0 CALM 0 6 0 3 1012.4 1012.4 0.4
25/04:00am 17.7 18.5 15.9 89 1.1 S 6 7 3 4 1012.5 1012.5 0.4
25/03:54am 17.6 18.3 15.6 88 1.2 S 6 7 3 4 1012.4 1012.4 0.4
25/03:30am 17.7 18.4 15.5 87 1.3 S 6 7 3 4 1012.4 1012.4 0.4
25/03:00am 18.6 20.4 16.4 87 1.3 S 2 9 1 5 1012.3 1012.3 0.4
25/02:30am 18.7 19.7 16.3 86 1.4 SSW 6 9 3 5 1012.2 1012.2 0.4
25/02:00am 18.8 19.1 15.9 83 1.7 S 9 13 5 7 1012.3 1012.3 0.4
25/01:30am 19.9 20.0 16.5 81 2.0 SSE 11 15 6 8 1012.3 1012.3 0.4
25/01:00am 20.6 20.7 16.6 78 2.4 SE 11 15 6 8 1012.3 1012.3 0.4
25/12:30am 20.7 20.7 16.3 76 2.6 SE 11 13 6 7 1012.4 1012.4 0.4
25/12:00am 20.5 21.6 16.7 79 2.3 SSE 6 9 3 5 1012.6 1012.6 0.4
 
Date/Time
EDT
Temp
°C
App
Temp
°C
Dew
Point
Rel
Hum
%
Delta-T
°C
Wind Press
QNH
hPa
Press
MSL
hPa
Rain
since 9 am
mm
Dir
 
Spd
km/h
Gust
km/h
Spd
kts
Gust
kts
24/11:30pm 20.9 20.7 16.7 77 2.5 S 13 19 7 10 1012.7 1012.7 0.4
24/11:00pm 21.1 21.4 16.1 73 3.0 SSE 9 11 5 6 1012.1 1012.1 0.4
24/10:30pm 22.7 23.2 16.5 68 3.8 E 9 15 5 8 1011.9 1011.9 0.4
24/10:00pm 22.8 22.6 16.6 68 3.8 E 13 15 7 8 1012.7 1012.7 0.4
24/09:30pm 22.9 23.9 16.4 67 4.0 NNE 6 9 3 5 1013.5 1013.5 0.4
24/09:00pm 23.2 24.0 16.3 65 4.2 NNE 7 11 4 6 1013.2 1013.2 0.4
24/08:30pm 23.6 23.9 16.1 62 4.6 ENE 9 13 5 7 1012.5 1012.5 0.4
24/08:00pm 24.0 24.2 15.8 60 5.0 NE 9 15 5 8 1012.4 1012.4 0.4
24/07:30pm 24.6 24.3 15.5 57 5.5 ENE 11 19 6 10 1012.2 1012.2 0.4
24/07:00pm 25.0 25.0 15.3 55 5.8 ENE 9 19 5 10 1012.0 1012.0 0.4
24/06:30pm 25.6 25.0 15.6 54 6.1 ENE 13 19 7 10 1011.9 1011.9 0.4
24/06:00pm 26.0 25.0 15.7 53 6.3 E 15 24 8 13 1011.9 1011.9 0.4
24/05:30pm 26.0 24.4 16.0 54 6.1 E 19 26 10 14 1011.9 1011.9 0.4
24/05:00pm 26.5 24.9 16.4 53 6.2 E 20 28 11 15 1012.2 1012.2 0.4
24/04:30pm 26.6 24.5 16.2 52 6.4 ENE 22 32 12 17 1012.4 1012.4 0.4
24/04:00pm 27.9 25.8 16.2 49 7.2 E 22 30 12 16 1012.7 1012.7 0.4
24/03:30pm 28.4 26.2 16.0 47 7.7 ENE 22 33 12 18 1013.0 1013.0 0.4
24/03:00pm 29.0 27.0 15.5 44 8.3 NE 20 28 11 15 1013.6 1013.6 0.4
24/02:30pm 29.6 26.4 11.2 32 10.6 N 19 30 10 16 1014.2 1014.2 0.4
24/02:00pm 29.3 26.1 11.8 34 10.1 N 20 32 11 17 1014.8 1014.8 0.4
24/01:30pm 29.7 27.7 12.6 35 10.1 N 15 26 8 14 1015.7 1015.7 0.4
24/01:00pm 28.0 26.4 13.9 42 8.4 N 15 28 8 15 1016.2 1016.2 0.4
24/12:30pm 27.0 26.0 14.7 47 7.4 N 13 19 7 10 1016.8 1016.8 0.4
24/12:00pm 25.8 24.9 14.9 51 6.5 N 13 22 7 12 1017.6 1017.6 0.4
24/11:30am 24.1 23.7 15.3 58 5.3 N 11 19 6 10 1018.4 1018.4 0.4
24/11:00am 23.3 24.1 17.3 69 3.7 NNE 9 15 5 8 1019.2 1019.2 0.4
24/10:30am 21.4 22.4 16.4 73 3.0 S 6 9 3 5 1020.0 1020.0 0.4
24/10:00am 21.3 21.3 16.3 73 3.0 NW 11 15 6 8 1020.0 1020.0 0.0
24/09:30am 21.2 21.6 16.2 73 3.0 N 9 13 5 7 1020.0 1020.0 0.0
24/09:00am 21.0 20.5 16.8 77 2.5 NNW 15 20 8 11 1020.2 1020.2 0.0
24/08:30am 20.0 21.0 16.8 82 1.9 NW 7 11 4 6 1020.3 1020.3 0.0
24/08:21am 19.5 20.4 16.7 84 1.7 NNW 7 13 4 7 1020.2 1020.2 0.0
24/08:00am 18.7 18.8 16.5 87 1.3 WNW 11 13 6 7 1020.2 1020.2 0.0
24/07:41am 18.2 18.2 16.2 88 1.2 W 11 13 6 7 1020.3 1020.3 0.0
24/07:30am 17.9 17.8 16.1 89 1.1 WNW 11 15 6 8 1020.2 1020.2 0.0
24/07:00am 18.0 18.5 15.6 86 1.4 SE 7 13 4 7 1020.3 1020.3 0.0
24/06:30am 18.1 17.8 15.5 85 1.5 SE 11 17 6 9 1020.4 1020.4 0.0
24/06:00am 17.8 17.0 15.2 85 1.5 ESE 13 17 7 9 1019.7 1019.7 0.0
24/05:30am 18.0 18.3 15.1 83 1.7 E 7 13 4 7 1019.5 1019.5 0.0
24/05:00am 17.8 18.3 15.1 84 1.6 S 6 9 3 5 1019.8 1019.8 0.0
24/04:30am 18.0 15.9 15.1 83 1.7 SSW 20 24 11 13 1020.1 1020.1 0.0
24/04:00am 18.0 18.2 14.7 81 1.9 W 7 9 4 5 1020.0 1020.0 0.0
24/03:30am 18.3 16.1 15.9 86 1.4 WSW 22 30 12 16 1020.4 1020.4 0.0
24/03:20am 18.0 16.3 16.2 89 1.1 WSW 20 24 11 13 1020.3 1020.3 0.0
24/03:00am 17.3 17.7 14.8 85 1.4 W 6 7 3 4 1019.1 1019.1 0.0
24/02:30am 18.8 19.4 15.9 83 1.7 NE 7 13 4 7 1018.9 1018.9 0.0
24/02:00am 19.0 18.2 16.0 83 1.8 ESE 15 20 8 11 1019.6 1019.6 0.0
24/01:30am 18.9 18.2 16.3 85 1.6 SE 15 20 8 11 1020.7 1020.7 0.0
24/01:00am 18.7 18.3 16.3 86 1.4 SE 13 15 7 8 1020.8 1020.8 0.0
24/12:30am 18.8 18.5 16.4 86 1.4 SE 13 15 7 8 1020.5 1020.5 0.0
24/12:00am 17.9 18.3 15.3 85 1.5 SSE 7 9 4 5 1020.8 1020.8 0.0
 
Date/Time
EDT
Temp
°C
App
Temp
°C
Dew
Point
Rel
Hum
%
Delta-T
°C
Wind Press
QNH
hPa
Press
MSL
hPa
Rain
since 9 am
mm
Dir
 
Spd
km/h
Gust
km/h
Spd
kts
Gust
kts
23/11:41pm 18.2 19.4 15.8 86 1.4 SSW 4 7 2 4 1020.5 1020.5 0.0
23/11:30pm 18.1 19.5 15.5 85 1.5 SW 2 6 1 3 1020.4 1020.4 0.0
23/11:25pm 18.1 19.2 15.5 85 1.5 SW 4 6 2 3 1020.5 1020.5 0.0
23/11:00pm 18.6 18.8 15.8 84 1.7 SSE 9 11 5 6 1020.6 1020.6 0.0
23/10:58pm 18.7 19.0 16.1 85 1.5 SSE 9 11 5 6 1020.5 1020.5 0.0
23/10:34pm 18.4 18.5 15.6 84 1.6 S 9 9 5 5 1020.6 1020.6 0.0
23/10:30pm 18.5 18.7 15.7 84 1.7 S 9 9 5 5 1020.6 1020.6 0.0
23/10:26pm 18.4 18.9 15.5 83 1.7 SSW 7 9 4 5 1020.6 1020.6 0.0
23/10:21pm 18.4 18.8 15.3 82 1.8 SW 7 9 4 5 1020.6 1020.6 0.0
23/10:00pm 18.8 19.3 15.5 81 1.9 SE 7 9 4 5 1020.3 1020.3 0.0
23/09:30pm 19.7 19.3 16.2 80 2.1 ESE 13 19 7 10 1019.9 1019.9 0.0
23/09:00pm 19.9 19.4 16.0 78 2.3 SE 13 20 7 11 1019.5 1019.5 0.0
23/08:30pm 20.3 19.2 15.3 73 3.0 ESE 15 19 8 10 1019.1 1019.1 0.0
23/08:00pm 20.5 19.6 14.8 70 3.3 SSE 13 15 7 8 1018.9 1018.9 0.0
23/07:30pm 20.5 20.2 14.4 68 3.6 SSW 9 15 5 8 1018.8 1018.8 0.0
23/07:00pm 21.9 19.7 14.8 64 4.2 ESE 20 24 11 13 1018.0 1018.0 0.0
23/06:30pm 22.4 20.0 13.7 58 5.0 SE 19 22 10 12 1017.8 1017.8 0.0
23/06:00pm 22.9 19.7 13.1 54 5.6 ESE 22 26 12 14 1017.5 1017.5 0.0
23/05:30pm 23.5 21.2 13.1 52 6.0 SE 17 19 9 10 1017.1 1017.1 0.0
23/05:00pm 24.5 21.0 13.4 50 6.5 ESE 24 30 13 16 1016.5 1016.5 0.0
23/04:30pm 25.0 21.1 13.2 48 6.9 ESE 26 30 14 16 1016.4 1016.4 0.0
23/04:00pm 26.7 22.4 12.0 40 8.4 ESE 26 33 14 18 1015.9 1015.9 0.0
23/03:30pm 27.4 23.7 11.4 37 9.1 ESE 22 30 12 16 1015.5 1015.5 0.0
23/03:00pm 28.9 24.3 11.0 33 10.2 ESE 26 35 14 19 1015.4 1015.4 0.0
23/02:30pm 29.1 24.9 11.2 33 10.3 E 24 33 13 18 1015.4 1015.4 0.0

Other Formats:

Comma delimited format used in spreadsheet applications
http://www.bom.gov.au/fwo/IDN60801/IDN60801.94765.axf

JavaScript Object Notation format (JSON) in row-major order
http://www.bom.gov.au/fwo/IDN60801/IDN60801.94765.json